Terminal Aerodrome Forecast
Issued by NWS Cleveland, OH

Home | Current Version | Previous Version | Graphics & Text | Print | Product List | Glossary On
Versions: 1 2 3 4 5 6 7 8 9 10 11 12 13 14 15 16 17 18 19 20 21 22 23 24 25 26
910
FTUS41 KCLE 210732 AAA
TAFCAK
TAF AMD
KCAK 210732Z 2108/2206 18004KT 5SM BR SCT004 BKN045
      TEMPO 2109/2112 2SM BR OVC004
     FM211400 19010KT P6SM BKN035=

USA.gov is the U.S. government's official web portal to all federal, state and local government web resources and services.